sensor_id;sensor_type;location;lat;lon;timestamp;P1;durP1;ratioP1;P2;durP2;ratioP2
78508;SDS011;67802;50.846;7.958;2023-04-27T00:00:46;3.42;;;1.50;;
78508;SDS011;67802;50.846;7.958;2023-04-27T00:03:11;5.00;;;1.87;;
78508;SDS011;67802;50.846;7.958;2023-04-27T00:05:37;4.32;;;1.85;;
78508;SDS011;67802;50.846;7.958;2023-04-27T00:08:03;3.20;;;1.50;;
78508;SDS011;67802;50.846;7.958;2023-04-27T00:10:29;4.40;;;1.73;;
78508;SDS011;67802;50.846;7.958;2023-04-27T00:12:55;3.97;;;1.60;;
78508;SDS011;67802;50.846;7.958;2023-04-27T00:15:20;3.88;;;1.63;;
78508;SDS011;67802;50.846;7.958;2023-04-27T00:17:45;3.50;;;1.60;;
78508;SDS011;67802;50.846;7.958;2023-04-27T00:20:10;4.33;;;1.50;;
78508;SDS011;67802;50.846;7.958;2023-04-27T00:22:37;3.78;;;1.60;;
78508;SDS011;67802;50.846;7.958;2023-04-27T00:25:03;6.03;;;2.03;;
78508;SDS011;67802;50.846;7.958;2023-04-27T00:27:29;3.35;;;1.45;;
78508;SDS011;67802;50.846;7.958;2023-04-27T00:29:54;3.20;;;1.53;;
78508;SDS011;67802;50.846;7.958;2023-04-27T00:32:19;4.10;;;1.67;;
78508;SDS011;67802;50.846;7.958;2023-04-27T00:34:45;3.38;;;1.60;;
78508;SDS011;67802;50.846;7.958;2023-04-27T00:37:10;4.03;;;1.67;;
78508;SDS011;67802;50.846;7.958;2023-04-27T00:39:35;3.80;;;1.50;;
78508;SDS011;67802;50.846;7.958;2023-04-27T00:42:01;3.50;;;1.60;;
78508;SDS011;67802;50.846;7.958;2023-04-27T00:44:26;3.85;;;1.50;;
78508;SDS011;67802;50.846;7.958;2023-04-27T00:46:52;3.63;;;1.60;;
78508;SDS011;67802;50.846;7.958;2023-04-27T00:49:18;4.43;;;1.40;;
78508;SDS011;67802;50.846;7.958;2023-04-27T00:51:44;2.90;;;1.40;;
78508;SDS011;67802;50.846;7.958;2023-04-27T00:54:09;4.18;;;1.63;;
78508;SDS011;67802;50.846;7.958;2023-04-27T00:56:35;4.05;;;1.70;;
78508;SDS011;67802;50.846;7.958;2023-04-27T00:59:00;3.50;;;1.50;;
78508;SDS011;67802;50.846;7.958;2023-04-27T01:01:26;4.13;;;1.52;;
78508;SDS011;67802;50.846;7.958;2023-04-27T01:03:53;4.88;;;1.92;;
78508;SDS011;67802;50.846;7.958;2023-04-27T01:06:18;3.40;;;1.40;;
78508;SDS011;67802;50.846;7.958;2023-04-27T01:08:44;3.88;;;1.50;;
78508;SDS011;67802;50.846;7.958;2023-04-27T01:11:10;4.00;;;1.70;;
78508;SDS011;67802;50.846;7.958;2023-04-27T01:13:36;3.70;;;1.60;;
78508;SDS011;67802;50.846;7.958;2023-04-27T01:16:01;4.68;;;1.50;;
78508;SDS011;67802;50.846;7.958;2023-04-27T01:18:26;4.78;;;1.60;;
78508;SDS011;67802;50.846;7.958;2023-04-27T01:20:52;3.80;;;1.70;;
78508;SDS011;67802;50.846;7.958;2023-04-27T01:23:17;3.58;;;1.50;;
78508;SDS011;67802;50.846;7.958;2023-04-27T01:25:42;3.78;;;1.40;;
78508;SDS011;67802;50.846;7.958;2023-04-27T01:28:08;4.32;;;1.70;;
78508;SDS011;67802;50.846;7.958;2023-04-27T01:30:33;3.85;;;1.50;;
78508;SDS011;67802;50.846;7.958;2023-04-27T01:32:58;3.23;;;1.53;;
78508;SDS011;67802;50.846;7.958;2023-04-27T01:35:23;3.95;;;1.60;;
78508;SDS011;67802;50.846;7.958;2023-04-27T01:37:49;3.38;;;1.48;;
78508;SDS011;67802;50.846;7.958;2023-04-27T01:40:15;4.03;;;1.52;;
78508;SDS011;67802;50.846;7.958;2023-04-27T01:42:40;3.83;;;1.60;;
78508;SDS011;67802;50.846;7.958;2023-04-27T01:45:06;3.65;;;1.50;;
78508;SDS011;67802;50.846;7.958;2023-04-27T01:47:32;3.80;;;1.42;;
78508;SDS011;67802;50.846;7.958;2023-04-27T01:49:57;4.00;;;1.50;;
78508;SDS011;67802;50.846;7.958;2023-04-27T01:52:22;3.80;;;1.63;;
78508;SDS011;67802;50.846;7.958;2023-04-27T01:54:48;3.63;;;1.50;;
78508;SDS011;67802;50.846;7.958;2023-04-27T01:57:13;3.53;;;1.50;;
78508;SDS011;67802;50.846;7.958;2023-04-27T01:59:40;5.30;;;1.80;;
78508;SDS011;67802;50.846;7.958;2023-04-27T02:02:05;3.13;;;1.50;;
78508;SDS011;67802;50.846;7.958;2023-04-27T02:04:30;4.93;;;1.70;;
78508;SDS011;67802;50.846;7.958;2023-04-27T02:06:55;4.03;;;1.60;;
78508;SDS011;67802;50.846;7.958;2023-04-27T02:09:21;4.95;;;1.63;;
78508;SDS011;67802;50.846;7.958;2023-04-27T02:11:46;2.72;;;1.30;;
78508;SDS011;67802;50.846;7.958;2023-04-27T02:14:11;4.15;;;1.50;;
78508;SDS011;67802;50.846;7.958;2023-04-27T02:16:37;3.23;;;1.30;;
78508;SDS011;67802;50.846;7.958;2023-04-27T02:19:02;3.80;;;1.50;;
78508;SDS011;67802;50.846;7.958;2023-04-27T02:21:28;3.88;;;1.70;;
78508;SDS011;67802;50.846;7.958;2023-04-27T02:23:53;4.22;;;1.65;;
78508;SDS011;67802;50.846;7.958;2023-04-27T02:26:19;3.08;;;1.40;;
78508;SDS011;67802;50.846;7.958;2023-04-27T02:28:46;2.88;;;1.40;;
78508;SDS011;67802;50.846;7.958;2023-04-27T02:31:12;3.85;;;1.48;;
78508;SDS011;67802;50.846;7.958;2023-04-27T02:33:38;3.70;;;1.40;;
78508;SDS011;67802;50.846;7.958;2023-04-27T02:36:07;4.57;;;1.58;;
78508;SDS011;67802;50.846;7.958;2023-04-27T02:38:33;3.42;;;1.42;;
78508;SDS011;67802;50.846;7.958;2023-04-27T02:40:59;4.05;;;1.60;;
78508;SDS011;67802;50.846;7.958;2023-04-27T02:43:24;3.15;;;1.40;;
78508;SDS011;67802;50.846;7.958;2023-04-27T02:45:50;3.22;;;1.38;;
78508;SDS011;67802;50.846;7.958;2023-04-27T02:48:15;4.72;;;1.65;;
78508;SDS011;67802;50.846;7.958;2023-04-27T02:50:41;3.92;;;1.70;;
78508;SDS011;67802;50.846;7.958;2023-04-27T02:53:07;4.43;;;1.60;;
78508;SDS011;67802;50.846;7.958;2023-04-27T02:55:33;4.43;;;1.70;;
78508;SDS011;67802;50.846;7.958;2023-04-27T02:57:59;3.08;;;1.48;;
78508;SDS011;67802;50.846;7.958;2023-04-27T03:00:24;3.15;;;1.45;;
78508;SDS011;67802;50.846;7.958;2023-04-27T03:02:50;3.38;;;1.50;;
78508;SDS011;67802;50.846;7.958;2023-04-27T03:05:15;3.50;;;1.40;;
78508;SDS011;67802;50.846;7.958;2023-04-27T03:07:41;3.97;;;1.70;;
78508;SDS011;67802;50.846;7.958;2023-04-27T03:10:06;3.47;;;1.60;;
78508;SDS011;67802;50.846;7.958;2023-04-27T03:12:32;4.32;;;1.60;;
78508;SDS011;67802;50.846;7.958;2023-04-27T03:14:57;3.90;;;1.43;;
78508;SDS011;67802;50.846;7.958;2023-04-27T03:17:23;3.88;;;1.45;;
78508;SDS011;67802;50.846;7.958;2023-04-27T03:19:49;3.60;;;1.33;;
78508;SDS011;67802;50.846;7.958;2023-04-27T03:22:14;3.90;;;1.43;;
78508;SDS011;67802;50.846;7.958;2023-04-27T03:24:39;4.43;;;1.63;;
78508;SDS011;67802;50.846;7.958;2023-04-27T03:27:05;4.83;;;1.70;;
78508;SDS011;67802;50.846;7.958;2023-04-27T03:29:30;4.18;;;1.50;;
78508;SDS011;67802;50.846;7.958;2023-04-27T03:31:55;5.07;;;1.85;;
78508;SDS011;67802;50.846;7.958;2023-04-27T03:34:21;4.70;;;1.52;;
78508;SDS011;67802;50.846;7.958;2023-04-27T03:36:47;3.58;;;1.60;;
78508;SDS011;67802;50.846;7.958;2023-04-27T03:39:13;3.63;;;1.40;;
78508;SDS011;67802;50.846;7.958;2023-04-27T03:41:38;4.72;;;1.60;;
78508;SDS011;67802;50.846;7.958;2023-04-27T03:44:03;3.28;;;1.50;;
78508;SDS011;67802;50.846;7.958;2023-04-27T03:46:28;3.40;;;1.70;;
78508;SDS011;67802;50.846;7.958;2023-04-27T03:48:54;4.22;;;1.67;;
78508;SDS011;67802;50.846;7.958;2023-04-27T03:51:19;3.70;;;1.40;;
78508;SDS011;67802;50.846;7.958;2023-04-27T03:53:44;3.45;;;1.42;;
78508;SDS011;67802;50.846;7.958;2023-04-27T03:56:10;3.28;;;1.45;;
78508;SDS011;67802;50.846;7.958;2023-04-27T03:58:35;3.70;;;1.60;;
78508;SDS011;67802;50.846;7.958;2023-04-27T04:01:01;3.53;;;1.55;;
78508;SDS011;67802;50.846;7.958;2023-04-27T04:03:26;4.82;;;1.73;;
78508;SDS011;67802;50.846;7.958;2023-04-27T04:05:51;3.27;;;1.40;;
78508;SDS011;67802;50.846;7.958;2023-04-27T04:08:17;3.60;;;1.52;;
78508;SDS011;67802;50.846;7.958;2023-04-27T04:10:42;3.95;;;1.70;;
78508;SDS011;67802;50.846;7.958;2023-04-27T04:13:07;3.95;;;1.73;;
78508;SDS011;67802;50.846;7.958;2023-04-27T04:15:32;4.32;;;1.45;;
78508;SDS011;67802;50.846;7.958;2023-04-27T04:17:58;3.70;;;1.55;;
78508;SDS011;67802;50.846;7.958;2023-04-27T04:20:23;3.67;;;1.40;;
78508;SDS011;67802;50.846;7.958;2023-04-27T04:22:48;4.38;;;1.48;;
78508;SDS011;67802;50.846;7.958;2023-04-27T04:25:14;3.78;;;1.50;;
78508;SDS011;67802;50.846;7.958;2023-04-27T04:27:39;4.10;;;1.65;;
78508;SDS011;67802;50.846;7.958;2023-04-27T04:30:05;3.63;;;1.63;;
78508;SDS011;67802;50.846;7.958;2023-04-27T04:32:31;3.15;;;1.23;;
78508;SDS011;67802;50.846;7.958;2023-04-27T04:34:57;4.63;;;1.63;;
78508;SDS011;67802;50.846;7.958;2023-04-27T04:37:25;3.92;;;1.67;;
78508;SDS011;67802;50.846;7.958;2023-04-27T04:39:51;3.20;;;1.40;;
78508;SDS011;67802;50.846;7.958;2023-04-27T04:42:16;4.35;;;1.70;;
78508;SDS011;67802;50.846;7.958;2023-04-27T04:44:41;4.93;;;1.67;;
78508;SDS011;67802;50.846;7.958;2023-04-27T04:47:07;4.13;;;1.80;;
78508;SDS011;67802;50.846;7.958;2023-04-27T04:49:34;4.25;;;1.58;;
78508;SDS011;67802;50.846;7.958;2023-04-27T04:51:59;4.88;;;1.60;;
78508;SDS011;67802;50.846;7.958;2023-04-27T04:54:25;4.27;;;1.50;;
78508;SDS011;67802;50.846;7.958;2023-04-27T04:56:50;3.85;;;1.58;;
78508;SDS011;67802;50.846;7.958;2023-04-27T04:59:15;3.75;;;1.50;;
78508;SDS011;67802;50.846;7.958;2023-04-27T05:01:41;2.92;;;1.40;;
78508;SDS011;67802;50.846;7.958;2023-04-27T05:04:07;4.10;;;1.70;;
78508;SDS011;67802;50.846;7.958;2023-04-27T05:06:32;3.65;;;1.42;;
78508;SDS011;67802;50.846;7.958;2023-04-27T05:08:57;4.35;;;1.90;;
78508;SDS011;67802;50.846;7.958;2023-04-27T05:11:22;3.95;;;1.48;;
78508;SDS011;67802;50.846;7.958;2023-04-27T05:13:48;3.72;;;1.60;;
78508;SDS011;67802;50.846;7.958;2023-04-27T05:16:13;3.70;;;1.50;;
78508;SDS011;67802;50.846;7.958;2023-04-27T05:18:38;4.00;;;1.65;;
78508;SDS011;67802;50.846;7.958;2023-04-27T05:21:04;3.70;;;1.40;;
78508;SDS011;67802;50.846;7.958;2023-04-27T05:23:29;3.28;;;1.40;;
78508;SDS011;67802;50.846;7.958;2023-04-27T05:25:55;4.68;;;1.50;;
78508;SDS011;67802;50.846;7.958;2023-04-27T05:28:20;3.93;;;1.53;;
78508;SDS011;67802;50.846;7.958;2023-04-27T05:30:45;3.60;;;1.50;;
78508;SDS011;67802;50.846;7.958;2023-04-27T05:33:11;3.70;;;1.40;;
78508;SDS011;67802;50.846;7.958;2023-04-27T05:35:36;3.33;;;1.50;;
78508;SDS011;67802;50.846;7.958;2023-04-27T05:38:01;3.27;;;1.47;;
78508;SDS011;67802;50.846;7.958;2023-04-27T05:40:27;3.22;;;1.48;;
78508;SDS011;67802;50.846;7.958;2023-04-27T05:42:52;3.20;;;1.42;;
78508;SDS011;67802;50.846;7.958;2023-04-27T05:45:18;3.85;;;1.60;;
78508;SDS011;67802;50.846;7.958;2023-04-27T05:47:44;3.92;;;1.50;;
78508;SDS011;67802;50.846;7.958;2023-04-27T05:50:09;4.00;;;1.50;;
78508;SDS011;67802;50.846;7.958;2023-04-27T05:52:35;3.92;;;1.60;;
78508;SDS011;67802;50.846;7.958;2023-04-27T05:55:01;4.03;;;1.65;;
78508;SDS011;67802;50.846;7.958;2023-04-27T05:57:26;3.67;;;1.52;;
78508;SDS011;67802;50.846;7.958;2023-04-27T05:59:52;3.25;;;1.40;;
78508;SDS011;67802;50.846;7.958;2023-04-27T06:02:18;4.13;;;1.65;;
78508;SDS011;67802;50.846;7.958;2023-04-27T06:04:43;4.72;;;1.70;;
78508;SDS011;67802;50.846;7.958;2023-04-27T06:07:10;3.65;;;1.65;;
78508;SDS011;67802;50.846;7.958;2023-04-27T06:09:37;3.72;;;1.70;;
78508;SDS011;67802;50.846;7.958;2023-04-27T06:12:03;3.65;;;1.50;;
78508;SDS011;67802;50.846;7.958;2023-04-27T06:14:30;4.15;;;1.73;;
78508;SDS011;67802;50.846;7.958;2023-04-27T06:16:55;3.95;;;1.70;;
78508;SDS011;67802;50.846;7.958;2023-04-27T06:19:21;4.50;;;1.95;;
78508;SDS011;67802;50.846;7.958;2023-04-27T06:21:46;4.40;;;1.55;;
78508;SDS011;67802;50.846;7.958;2023-04-27T06:24:11;3.55;;;1.67;;
78508;SDS011;67802;50.846;7.958;2023-04-27T06:26:37;5.68;;;1.92;;
78508;SDS011;67802;50.846;7.958;2023-04-27T06:29:02;3.50;;;1.70;;
78508;SDS011;67802;50.846;7.958;2023-04-27T06:31:28;3.33;;;1.58;;
78508;SDS011;67802;50.846;7.958;2023-04-27T06:33:54;3.08;;;1.45;;
78508;SDS011;67802;50.846;7.958;2023-04-27T06:36:19;4.55;;;1.60;;
78508;SDS011;67802;50.846;7.958;2023-04-27T06:38:45;4.40;;;1.70;;
78508;SDS011;67802;50.846;7.958;2023-04-27T06:41:10;3.92;;;1.60;;
78508;SDS011;67802;50.846;7.958;2023-04-27T06:43:36;3.90;;;1.60;;
78508;SDS011;67802;50.846;7.958;2023-04-27T06:46:01;4.82;;;1.80;;
78508;SDS011;67802;50.846;7.958;2023-04-27T06:48:27;4.20;;;1.70;;
78508;SDS011;67802;50.846;7.958;2023-04-27T06:50:52;4.10;;;1.85;;
78508;SDS011;67802;50.846;7.958;2023-04-27T06:53:17;5.70;;;1.73;;
78508;SDS011;67802;50.846;7.958;2023-04-27T06:55:43;6.35;;;1.77;;
78508;SDS011;67802;50.846;7.958;2023-04-27T06:58:08;4.00;;;1.63;;
78508;SDS011;67802;50.846;7.958;2023-04-27T07:00:33;4.80;;;1.65;;
78508;SDS011;67802;50.846;7.958;2023-04-27T07:02:59;4.75;;;1.90;;
78508;SDS011;67802;50.846;7.958;2023-04-27T07:05:24;4.25;;;1.73;;
78508;SDS011;67802;50.846;7.958;2023-04-27T07:07:50;5.43;;;2.10;;
78508;SDS011;67802;50.846;7.958;2023-04-27T07:10:16;4.75;;;1.73;;
78508;SDS011;67802;50.846;7.958;2023-04-27T07:12:41;5.10;;;1.85;;
78508;SDS011;67802;50.846;7.958;2023-04-27T07:15:07;5.45;;;1.70;;
78508;SDS011;67802;50.846;7.958;2023-04-27T07:17:33;5.10;;;1.90;;
78508;SDS011;67802;50.846;7.958;2023-04-27T07:19:58;4.15;;;1.77;;
78508;SDS011;67802;50.846;7.958;2023-04-27T07:22:25;3.85;;;1.55;;
78508;SDS011;67802;50.846;7.958;2023-04-27T07:24:50;4.05;;;1.63;;
78508;SDS011;67802;50.846;7.958;2023-04-27T07:27:15;4.05;;;1.80;;
78508;SDS011;67802;50.846;7.958;2023-04-27T07:29:41;4.45;;;1.60;;
78508;SDS011;67802;50.846;7.958;2023-04-27T07:32:07;4.30;;;1.60;;
78508;SDS011;67802;50.846;7.958;2023-04-27T07:34:32;3.70;;;1.52;;
78508;SDS011;67802;50.846;7.958;2023-04-27T07:36:58;4.20;;;1.70;;
78508;SDS011;67802;50.846;7.958;2023-04-27T07:39:24;4.00;;;1.50;;
78508;SDS011;67802;50.846;7.958;2023-04-27T07:41:50;4.95;;;1.70;;
78508;SDS011;67802;50.846;7.958;2023-04-27T07:44:16;4.03;;;1.75;;
78508;SDS011;67802;50.846;7.958;2023-04-27T07:46:42;4.50;;;1.75;;
78508;SDS011;67802;50.846;7.958;2023-04-27T07:49:08;3.87;;;1.43;;
78508;SDS011;67802;50.846;7.958;2023-04-27T07:51:33;3.83;;;1.52;;
78508;SDS011;67802;50.846;7.958;2023-04-27T07:53:59;3.40;;;1.40;;
78508;SDS011;67802;50.846;7.958;2023-04-27T07:56:26;3.65;;;1.40;;
78508;SDS011;67802;50.846;7.958;2023-04-27T07:58:51;3.75;;;1.48;;
78508;SDS011;67802;50.846;7.958;2023-04-27T08:01:16;3.00;;;1.20;;
78508;SDS011;67802;50.846;7.958;2023-04-27T08:03:42;4.17;;;1.90;;
78508;SDS011;67802;50.846;7.958;2023-04-27T08:06:07;3.90;;;1.50;;
78508;SDS011;67802;50.846;7.958;2023-04-27T08:08:32;3.63;;;1.60;;
78508;SDS011;67802;50.846;7.958;2023-04-27T08:10:57;3.75;;;1.55;;
78508;SDS011;67802;50.846;7.958;2023-04-27T08:13:23;3.63;;;1.60;;
78508;SDS011;67802;50.846;7.958;2023-04-27T08:15:49;3.60;;;1.55;;
78508;SDS011;67802;50.846;7.958;2023-04-27T08:18:14;5.38;;;1.40;;
78508;SDS011;67802;50.846;7.958;2023-04-27T08:20:39;5.27;;;1.57;;
78508;SDS011;67802;50.846;7.958;2023-04-27T08:23:05;5.07;;;1.63;;
78508;SDS011;67802;50.846;7.958;2023-04-27T08:25:30;3.30;;;1.37;;
78508;SDS011;67802;50.846;7.958;2023-04-27T08:27:56;4.45;;;1.80;;
78508;SDS011;67802;50.846;7.958;2023-04-27T08:30:21;6.03;;;1.60;;
78508;SDS011;67802;50.846;7.958;2023-04-27T08:32:46;4.30;;;1.30;;
78508;SDS011;67802;50.846;7.958;2023-04-27T08:35:11;3.55;;;1.63;;
78508;SDS011;67802;50.846;7.958;2023-04-27T08:37:38;4.20;;;1.52;;
78508;SDS011;67802;50.846;7.958;2023-04-27T08:40:04;3.70;;;1.70;;
78508;SDS011;67802;50.846;7.958;2023-04-27T08:42:31;3.85;;;1.50;;
78508;SDS011;67802;50.846;7.958;2023-04-27T08:44:56;5.40;;;1.45;;
78508;SDS011;67802;50.846;7.958;2023-04-27T08:47:22;3.83;;;1.42;;
78508;SDS011;67802;50.846;7.958;2023-04-27T08:49:47;5.75;;;1.40;;
78508;SDS011;67802;50.846;7.958;2023-04-27T08:52:13;3.47;;;1.37;;
78508;SDS011;67802;50.846;7.958;2023-04-27T08:54:39;4.88;;;1.40;;
78508;SDS011;67802;50.846;7.958;2023-04-27T08:57:07;2.92;;;1.35;;
78508;SDS011;67802;50.846;7.958;2023-04-27T08:59:33;4.50;;;1.35;;
78508;SDS011;67802;50.846;7.958;2023-04-27T09:02:00;3.95;;;1.45;;
78508;SDS011;67802;50.846;7.958;2023-04-27T09:04:34;3.35;;;1.30;;
78508;SDS011;67802;50.846;7.958;2023-04-27T09:07:08;3.75;;;1.42;;
78508;SDS011;67802;50.846;7.958;2023-04-27T09:09:35;5.10;;;1.67;;
78508;SDS011;67802;50.846;7.958;2023-04-27T09:12:00;6.22;;;1.65;;
78508;SDS011;67802;50.846;7.958;2023-04-27T09:14:26;3.33;;;1.35;;
78508;SDS011;67802;50.846;7.958;2023-04-27T09:16:55;2.85;;;1.25;;
78508;SDS011;67802;50.846;7.958;2023-04-27T09:19:23;4.38;;;1.15;;
78508;SDS011;67802;50.846;7.958;2023-04-27T09:21:49;3.78;;;1.48;;
78508;SDS011;67802;50.846;7.958;2023-04-27T09:24:15;5.55;;;1.35;;
78508;SDS011;67802;50.846;7.958;2023-04-27T09:26:40;2.40;;;1.10;;
78508;SDS011;67802;50.846;7.958;2023-04-27T09:29:13;3.28;;;1.27;;
78508;SDS011;67802;50.846;7.958;2023-04-27T09:31:39;3.53;;;1.40;;
78508;SDS011;67802;50.846;7.958;2023-04-27T09:34:04;3.85;;;1.40;;
78508;SDS011;67802;50.846;7.958;2023-04-27T09:36:30;2.70;;;1.10;;
78508;SDS011;67802;50.846;7.958;2023-04-27T09:38:56;5.57;;;1.30;;
78508;SDS011;67802;50.846;7.958;2023-04-27T09:41:22;2.60;;;1.20;;
78508;SDS011;67802;50.846;7.958;2023-04-27T09:43:48;3.22;;;1.20;;
78508;SDS011;67802;50.846;7.958;2023-04-27T09:46:15;4.10;;;1.45;;
78508;SDS011;67802;50.846;7.958;2023-04-27T09:48:41;3.17;;;1.30;;
78508;SDS011;67802;50.846;7.958;2023-04-27T09:51:06;2.63;;;1.20;;
78508;SDS011;67802;50.846;7.958;2023-04-27T09:53:36;4.57;;;1.23;;
78508;SDS011;67802;50.846;7.958;2023-04-27T09:56:25;2.85;;;1.40;;
78508;SDS011;67802;50.846;7.958;2023-04-27T09:59:15;4.15;;;1.20;;
78508;SDS011;67802;50.846;7.958;2023-04-27T10:01:50;5.40;;;1.25;;
78508;SDS011;67802;50.846;7.958;2023-04-27T10:04:24;3.22;;;1.40;;
78508;SDS011;67802;50.846;7.958;2023-04-27T10:07:11;7.13;;;1.70;;
78508;SDS011;67802;50.846;7.958;2023-04-27T10:09:48;8.52;;;1.77;;
78508;SDS011;67802;50.846;7.958;2023-04-27T10:12:20;12.75;;;1.50;;
78508;SDS011;67802;50.846;7.958;2023-04-27T10:14:47;5.10;;;1.33;;
78508;SDS011;67802;50.846;7.958;2023-04-27T10:17:17;5.03;;;1.35;;
78508;SDS011;67802;50.846;7.958;2023-04-27T10:20:00;9.50;;;1.15;;
78508;SDS011;67802;50.846;7.958;2023-04-27T10:25:20;3.85;;;1.20;;
78508;SDS011;67802;50.846;7.958;2023-04-27T10:30:16;2.75;;;1.13;;
78508;SDS011;67802;50.846;7.958;2023-04-27T10:32:52;3.95;;;1.30;;
78508;SDS011;67802;50.846;7.958;2023-04-27T10:35:19;2.55;;;1.13;;
78508;SDS011;67802;50.846;7.958;2023-04-27T10:37:46;4.68;;;1.30;;
78508;SDS011;67802;50.846;7.958;2023-04-27T10:40:12;4.25;;;1.20;;
78508;SDS011;67802;50.846;7.958;2023-04-27T10:42:39;2.40;;;1.00;;
78508;SDS011;67802;50.846;7.958;2023-04-27T10:45:05;2.40;;;1.10;;
78508;SDS011;67802;50.846;7.958;2023-04-27T10:47:56;3.22;;;1.23;;
78508;SDS011;67802;50.846;7.958;2023-04-27T10:50:22;4.75;;;1.48;;
78508;SDS011;67802;50.846;7.958;2023-04-27T10:52:47;5.15;;;1.30;;
78508;SDS011;67802;50.846;7.958;2023-04-27T10:55:19;3.30;;;1.23;;
78508;SDS011;67802;50.846;7.958;2023-04-27T10:57:50;3.45;;;1.20;;
78508;SDS011;67802;50.846;7.958;2023-04-27T11:00:35;3.63;;;1.13;;
78508;SDS011;67802;50.846;7.958;2023-04-27T11:05:35;3.40;;;1.27;;
78508;SDS011;67802;50.846;7.958;2023-04-27T11:10:33;3.65;;;1.30;;
78508;SDS011;67802;50.846;7.958;2023-04-27T11:13:12;3.42;;;1.15;;
78508;SDS011;67802;50.846;7.958;2023-04-27T11:18:12;2.65;;;1.20;;
78508;SDS011;67802;50.846;7.958;2023-04-27T11:20:38;2.70;;;1.17;;
78508;SDS011;67802;50.846;7.958;2023-04-27T11:23:03;3.75;;;1.20;;
78508;SDS011;67802;50.846;7.958;2023-04-27T11:25:29;4.55;;;1.30;;
78508;SDS011;67802;50.846;7.958;2023-04-27T11:27:57;2.05;;;1.10;;
78508;SDS011;67802;50.846;7.958;2023-04-27T11:30:22;2.33;;;1.10;;
78508;SDS011;67802;50.846;7.958;2023-04-27T11:32:48;5.15;;;1.20;;
78508;SDS011;67802;50.846;7.958;2023-04-27T11:35:14;3.70;;;1.27;;
78508;SDS011;67802;50.846;7.958;2023-04-27T11:37:40;4.10;;;1.23;;
78508;SDS011;67802;50.846;7.958;2023-04-27T11:40:06;2.17;;;1.10;;
78508;SDS011;67802;50.846;7.958;2023-04-27T11:42:35;3.25;;;1.15;;
78508;SDS011;67802;50.846;7.958;2023-04-27T11:45:02;3.70;;;1.30;;
78508;SDS011;67802;50.846;7.958;2023-04-27T11:47:33;3.10;;;1.20;;
78508;SDS011;67802;50.846;7.958;2023-04-27T11:50:05;2.72;;;1.20;;
78508;SDS011;67802;50.846;7.958;2023-04-27T11:52:32;2.15;;;1.10;;
78508;SDS011;67802;50.846;7.958;2023-04-27T11:55:00;2.97;;;1.30;;
78508;SDS011;67802;50.846;7.958;2023-04-27T11:57:29;2.58;;;1.20;;
78508;SDS011;67802;50.846;7.958;2023-04-27T11:59:56;2.47;;;1.02;;
78508;SDS011;67802;50.846;7.958;2023-04-27T12:02:24;2.60;;;1.02;;
78508;SDS011;67802;50.846;7.958;2023-04-27T12:04:50;2.58;;;1.10;;
78508;SDS011;67802;50.846;7.958;2023-04-27T12:07:16;1.80;;;1.13;;
78508;SDS011;67802;50.846;7.958;2023-04-27T12:09:42;2.58;;;1.02;;
78508;SDS011;67802;50.846;7.958;2023-04-27T12:12:08;3.67;;;1.50;;
78508;SDS011;67802;50.846;7.958;2023-04-27T12:14:34;2.95;;;1.27;;
78508;SDS011;67802;50.846;7.958;2023-04-27T12:17:00;3.03;;;1.10;;
78508;SDS011;67802;50.846;7.958;2023-04-27T12:19:25;3.10;;;1.10;;
78508;SDS011;67802;50.846;7.958;2023-04-27T12:21:51;2.70;;;1.20;;
78508;SDS011;67802;50.846;7.958;2023-04-27T12:24:17;3.63;;;1.25;;
78508;SDS011;67802;50.846;7.958;2023-04-27T12:26:42;3.05;;;1.20;;
78508;SDS011;67802;50.846;7.958;2023-04-27T12:29:07;2.83;;;1.10;;
78508;SDS011;67802;50.846;7.958;2023-04-27T12:31:33;2.00;;;1.05;;
78508;SDS011;67802;50.846;7.958;2023-04-27T12:33:58;2.40;;;1.20;;
78508;SDS011;67802;50.846;7.958;2023-04-27T12:36:24;2.97;;;1.10;;
78508;SDS011;67802;50.846;7.958;2023-04-27T12:38:51;2.40;;;1.08;;
78508;SDS011;67802;50.846;7.958;2023-04-27T12:41:16;2.67;;;1.13;;
78508;SDS011;67802;50.846;7.958;2023-04-27T12:43:41;2.80;;;1.20;;
78508;SDS011;67802;50.846;7.958;2023-04-27T12:46:07;6.35;;;2.10;;
78508;SDS011;67802;50.846;7.958;2023-04-27T12:48:32;4.50;;;1.77;;
78508;SDS011;67802;50.846;7.958;2023-04-27T12:50:58;3.38;;;1.35;;
78508;SDS011;67802;50.846;7.958;2023-04-27T12:53:23;3.72;;;1.40;;
78508;SDS011;67802;50.846;7.958;2023-04-27T12:55:49;5.68;;;1.77;;
78508;SDS011;67802;50.846;7.958;2023-04-27T12:58:14;5.05;;;1.77;;
78508;SDS011;67802;50.846;7.958;2023-04-27T13:00:40;5.72;;;2.05;;
78508;SDS011;67802;50.846;7.958;2023-04-27T13:03:05;10.07;;;3.17;;
78508;SDS011;67802;50.846;7.958;2023-04-27T13:05:31;7.47;;;2.20;;
78508;SDS011;67802;50.846;7.958;2023-04-27T13:07:57;5.05;;;1.92;;
78508;SDS011;67802;50.846;7.958;2023-04-27T13:10:22;5.30;;;2.00;;
78508;SDS011;67802;50.846;7.958;2023-04-27T13:12:47;6.00;;;2.03;;
78508;SDS011;67802;50.846;7.958;2023-04-27T13:15:13;4.43;;;2.00;;
78508;SDS011;67802;50.846;7.958;2023-04-27T13:17:38;5.97;;;2.10;;
78508;SDS011;67802;50.846;7.958;2023-04-27T13:20:03;5.30;;;2.03;;
78508;SDS011;67802;50.846;7.958;2023-04-27T13:22:31;5.93;;;1.73;;
78508;SDS011;67802;50.846;7.958;2023-04-27T13:24:56;5.25;;;1.92;;
78508;SDS011;67802;50.846;7.958;2023-04-27T13:27:22;6.38;;;2.03;;
78508;SDS011;67802;50.846;7.958;2023-04-27T13:29:49;7.57;;;2.03;;
78508;SDS011;67802;50.846;7.958;2023-04-27T13:32:15;5.32;;;1.92;;
78508;SDS011;67802;50.846;7.958;2023-04-27T13:34:40;5.20;;;1.98;;
78508;SDS011;67802;50.846;7.958;2023-04-27T13:37:06;7.25;;;1.90;;
78508;SDS011;67802;50.846;7.958;2023-04-27T13:39:31;4.88;;;1.88;;
78508;SDS011;67802;50.846;7.958;2023-04-27T13:41:57;8.55;;;1.88;;
78508;SDS011;67802;50.846;7.958;2023-04-27T13:44:22;5.57;;;1.98;;
78508;SDS011;67802;50.846;7.958;2023-04-27T13:46:47;6.28;;;1.73;;
78508;SDS011;67802;50.846;7.958;2023-04-27T13:49:12;5.80;;;1.77;;
78508;SDS011;67802;50.846;7.958;2023-04-27T13:51:38;7.20;;;2.50;;
78508;SDS011;67802;50.846;7.958;2023-04-27T13:54:04;5.38;;;2.08;;
78508;SDS011;67802;50.846;7.958;2023-04-27T13:56:29;4.17;;;1.80;;
78508;SDS011;67802;50.846;7.958;2023-04-27T13:58:55;6.40;;;2.40;;
78508;SDS011;67802;50.846;7.958;2023-04-27T14:01:20;4.63;;;2.05;;
78508;SDS011;67802;50.846;7.958;2023-04-27T14:03:46;4.68;;;1.67;;
78508;SDS011;67802;50.846;7.958;2023-04-27T14:06:11;6.20;;;1.83;;
78508;SDS011;67802;50.846;7.958;2023-04-27T14:08:36;4.10;;;1.50;;
78508;SDS011;67802;50.846;7.958;2023-04-27T14:11:02;3.60;;;1.60;;
78508;SDS011;67802;50.846;7.958;2023-04-27T14:13:27;4.18;;;1.50;;
78508;SDS011;67802;50.846;7.958;2023-04-27T14:15:52;4.47;;;1.60;;
78508;SDS011;67802;50.846;7.958;2023-04-27T14:18:18;3.88;;;1.55;;
78508;SDS011;67802;50.846;7.958;2023-04-27T14:20:43;4.05;;;1.95;;
78508;SDS011;67802;50.846;7.958;2023-04-27T14:23:10;5.88;;;1.42;;
78508;SDS011;67802;50.846;7.958;2023-04-27T14:25:35;3.47;;;1.65;;
78508;SDS011;67802;50.846;7.958;2023-04-27T14:28:01;5.00;;;1.77;;
78508;SDS011;67802;50.846;7.958;2023-04-27T14:30:29;4.18;;;1.58;;
78508;SDS011;67802;50.846;7.958;2023-04-27T14:32:56;6.18;;;1.65;;
78508;SDS011;67802;50.846;7.958;2023-04-27T14:35:21;3.88;;;1.45;;
78508;SDS011;67802;50.846;7.958;2023-04-27T14:37:48;4.30;;;1.42;;
78508;SDS011;67802;50.846;7.958;2023-04-27T14:40:16;3.45;;;1.33;;
78508;SDS011;67802;50.846;7.958;2023-04-27T14:42:42;3.42;;;1.33;;
78508;SDS011;67802;50.846;7.958;2023-04-27T14:45:07;3.10;;;1.20;;
78508;SDS011;67802;50.846;7.958;2023-04-27T14:47:33;4.57;;;1.65;;
78508;SDS011;67802;50.846;7.958;2023-04-27T14:49:58;4.22;;;1.50;;
78508;SDS011;67802;50.846;7.958;2023-04-27T14:52:23;5.13;;;1.50;;
78508;SDS011;67802;50.846;7.958;2023-04-27T14:54:49;3.97;;;1.48;;